Thursday, October 18, 2018, 2:28 PM GMT
Back to Local

CYBG, Bagotville, Que.

Location: , , Canada Lat: 48.333
Local Time: 2:28 PM GMT (14:28 GMT) Lon: -71
Time Zone: GMT Elev: 521 ft

Show me the last for .
Show Coded

Time T Td Feel RH Dir Speed Gust Alt SLP Vis Weather Sky Remarks
2018-10-18 14:00 32 21 17 63 290° 21 32 29.98 30.00 20 BKN030 None
2018-10-18 13:23 32 23 17 68 270° 24 32 29.96 29.99 20 BKN030 None
2018-10-18 13:00 32 23 17 68 270° 28 35 29.96 29.98 15 -SHSN BKN029 None
2018-10-18 12:19 30 23 15 74 270° 24 30 29.94 29.96 15 -SHSN BKN027 None
2018-10-18 12:00 30 21 14 68 270° 26 33 29.93 29.96 15 BKN030 None
2018-10-18 11:00 30 23 15 74 270° 23 30 29.90 29.93 25 BKN035 None
2018-10-18 10:31 30 25 14 80 270° 28 35 29.89 29.91 25 -SHSN OVC035 None
2018-10-18 10:00 30 23 15 74 270° 22 31 29.87 29.90 15 OVC035 None
2018-10-18 09:00 30 23 15 74 280° 23 31 29.85 29.87 15 -SHSN BKN030 OVC040 None
2018-10-18 08:00 32 25 17 74 280° 24 35 29.80 29.83 15 -SHSN BKN030 OVC080 None
2018-10-18 07:00 32 25 18 74 270° 22 30 29.77 29.80 15 -SHSN OVC035 None
2018-10-18 06:00 32 23 18 68 280° 23 29 29.76 29.78 15 -SHSN OVC030 None
2018-10-18 05:00 32 21 18 63 270° 22 28 29.75 29.77 15 OVC030 None
2018-10-18 04:00 32 21 17 63 270° 20 31 29.74 29.76 15 OVC030 None
2018-10-18 03:00 34 23 23 64 270° 17 - 29.74 29.76 15 OVC030 None
2018-10-18 02:00 34 25 20 69 270° 22 29 29.72 29.74 25 FEW030 SCT065 BKN120 OVC220 None
2018-10-18 01:00 34 25 23 69 270° 17 - 29.70 29.72 25 BKN120 None
2018-10-18 00:00 36 27 26 69 270° 15 - 29.68 29.70 25 FEW040 BKN110 None
2018-10-17 23:00 36 27 25 69 270° 21 - 29.66 29.68 25 BKN030 BKN040 None
2018-10-17 22:23 36 28 23 74 270° 22 28 29.64 29.66 15 BKN030 BKN100 None
2018-10-17 22:00 36 30 23 80 270° 21 29 29.62 29.65 10 -SHRASN FEW005 BKN025 BKN100 None
2018-10-17 21:45 37 32 25 80 270° 20 30 29.62 29.64 2 -SHRASN FEW005 BKN025 OVC032 None
2018-10-17 21:26 37 28 25 69 270° 17 28 29.59 29.62 15 VCSH SCT024 BKN090 BKN210 None
2018-10-17 21:00 39 27 27 60 280° 23 32 29.59 29.61 10 -SHSN SCT020 BKN080 None
2018-10-17 20:24 41 28 30 60 280° 21 30 29.57 29.59 25 VCSH SCT050 BKN080 None
2018-10-17 20:00 41 30 30 65 270° 15 28 29.56 29.58 20 -SHRA FEW010 BKN055 None
2018-10-17 19:00 43 30 33 60 280° 15 25 29.55 29.57 20 VCSH BKN027TCU BKN210 None
2018-10-17 18:00 39 36 32 86 270° 13 - 29.54 29.56 20 SCT010 BKN060 BKN230 None
2018-10-17 17:00 37 36 27 93 280° 21 - 29.54 29.56 5 -SHRA BR FEW008 OVC020 None
2018-10-17 16:39 39 36 28 86 280° 21 29 29.53 29.55 5 SHRA BR BKN021 OVC060 None
2018-10-17 16:00 43 37 34 81 220° 15 21 29.52 29.54 15 -SHRA SCT021 OVC065 None
2018-10-17 15:38 41 36 32 80 230° 12 20 29.52 29.54 15 -SHRA SCT022 OVC065 None
2018-10-17 15:00 43 36 33 75 230° 20 25 29.53 29.55 10 -SHRA BKN021 OVC045 None

Support USWX by starting your Amazon purchase here.